createdAt,value
2023-04-02T00:01:38.113Z,95.72
2023-04-02T00:04:14.271Z,96.26
2023-04-02T00:06:45.152Z,97.46
2023-04-02T00:09:14.457Z,96.48
2023-04-02T00:11:42.269Z,97.42
2023-04-02T00:14:17.913Z,96.53
2023-04-02T00:16:45.506Z,97.09
2023-04-02T00:19:18.313Z,96.01
2023-04-02T00:21:46.016Z,96.60
2023-04-02T00:24:17.569Z,95.80
2023-04-02T00:26:45.641Z,96.12
2023-04-02T00:29:13.520Z,96.02
2023-04-02T00:31:44.518Z,96.65
2023-04-02T00:34:17.299Z,97.12
2023-04-02T00:36:44.181Z,96.30
2023-04-02T00:39:15.987Z,96.57
2023-04-02T00:41:47.197Z,96.88
2023-04-02T00:44:15.549Z,96.11
2023-04-02T00:46:49.922Z,96.05
2023-04-02T00:49:28.385Z,95.33
2023-04-02T00:51:57.412Z,95.65
2023-04-02T00:54:25.726Z,95.61
2023-04-02T00:56:53.570Z,95.53
2023-04-02T00:59:19.962Z,95.97
2023-04-02T01:01:59.416Z,94.39
2023-04-02T01:04:27.384Z,95.04
2023-04-02T01:06:54.081Z,95.82
2023-04-02T01:09:46.934Z,94.80
2023-04-02T01:12:19.513Z,96.24
2023-04-02T01:15:07.721Z,95.31
2023-04-02T01:17:37.088Z,94.95
2023-04-02T01:20:10.370Z,92.67
2023-04-02T01:22:42.579Z,92.72
2023-04-02T01:25:13.608Z,91.69
2023-04-02T01:27:44.080Z,92.24
2023-04-02T01:30:12.503Z,91.27
2023-04-02T01:32:39.490Z,91.17
2023-04-02T01:35:06.191Z,90.06
2023-04-02T01:37:40.240Z,90.31
2023-04-02T01:40:14.550Z,90.09
2023-04-02T01:42:53.224Z,89.55
2023-04-02T01:45:21.875Z,90.64
2023-04-02T01:47:48.870Z,90.88
2023-04-02T01:50:33.906Z,91.69
2023-04-02T01:53:02.725Z,90.52
2023-04-02T01:55:40.446Z,91.02
2023-04-02T01:58:07.575Z,91.31
2023-04-02T02:00:36.240Z,91.03
2023-04-02T02:03:03.743Z,90.88
2023-04-02T02:05:30.214Z,90.83
2023-04-02T02:07:57.279Z,90.12
2023-04-02T02:10:26.521Z,90.69
2023-04-02T02:12:53.014Z,90.92
2023-04-02T02:15:21.064Z,91.02
2023-04-02T02:17:47.828Z,90.27
2023-04-02T02:20:14.915Z,89.83
2023-04-02T02:22:45.795Z,90.22
2023-04-02T02:25:15.855Z,90.20
2023-04-02T02:27:42.210Z,90.23
2023-04-02T02:30:18.324Z,90.37
2023-04-02T02:32:51.723Z,90.97
2023-04-02T02:35:21.864Z,90.53
2023-04-02T02:37:52.991Z,90.25
2023-04-02T02:40:27.576Z,90.03
2023-04-02T02:42:59.700Z,91.04
2023-04-02T02:45:28.173Z,89.77
2023-04-02T02:47:55.384Z,90.93
2023-04-02T02:50:31.746Z,89.84
2023-04-02T02:52:59.332Z,90.87
2023-04-02T02:55:32.643Z,90.87
2023-04-02T02:58:04.482Z,90.47
2023-04-02T03:00:32.072Z,88.83
2023-04-02T03:02:58.599Z,89.35
2023-04-02T03:05:26.680Z,90.60
2023-04-02T03:07:55.530Z,91.04
2023-04-02T03:10:24.841Z,91.09
2023-04-02T03:13:09.618Z,90.44
2023-04-02T03:15:41.326Z,88.97
2023-04-02T03:18:13.419Z,88.33
2023-04-02T03:20:52.393Z,89.23
2023-04-02T03:23:35.239Z,89.36
2023-04-02T03:26:04.328Z,89.14
2023-04-02T03:28:33.094Z,87.95
2023-04-02T03:30:59.466Z,88.39
2023-04-02T03:33:28.887Z,88.26
2023-04-02T03:35:55.613Z,88.66
2023-04-02T03:38:25.134Z,88.68
2023-04-02T03:41:03.700Z,88.71
2023-04-02T03:43:52.703Z,88.31
2023-04-02T03:46:19.100Z,88.30
2023-04-02T03:48:51.672Z,89.16
2023-04-02T03:51:20.836Z,91.33
2023-04-02T03:53:47.965Z,88.21
2023-04-02T03:56:23.155Z,87.81
2023-04-02T03:58:55.079Z,88.13
2023-04-02T04:01:31.247Z,89.90
2023-04-02T04:04:03.275Z,90.01
2023-04-02T04:06:31.731Z,88.27
2023-04-02T04:09:00.377Z,89.34
2023-04-02T04:11:30.534Z,88.10
2023-04-02T04:14:03.191Z,88.86
2023-04-02T04:16:32.758Z,89.69
2023-04-02T04:19:11.011Z,89.38
2023-04-02T04:21:37.634Z,88.42
2023-04-02T04:24:05.940Z,88.76
2023-04-02T04:26:39.569Z,89.29
2023-04-02T04:29:24.630Z,90.14
2023-04-02T04:31:55.292Z,88.25
2023-04-02T04:34:25.357Z,87.28
2023-04-02T04:36:57.468Z,87.07
2023-04-02T04:39:31.959Z,88.68
2023-04-02T04:42:00.624Z,89.38
2023-04-02T04:44:49.497Z,87.24
2023-04-02T04:47:20.919Z,87.59
2023-04-02T04:50:05.526Z,87.36
2023-04-02T04:52:39.355Z,90.08
2023-04-02T04:55:25.426Z,88.06
2023-04-02T04:57:55.734Z,89.55
2023-04-02T05:00:35.763Z,88.70
2023-04-02T05:03:21.016Z,89.02
2023-04-02T05:05:51.747Z,90.00
2023-04-02T05:08:27.255Z,88.59
2023-04-02T05:11:05.975Z,87.27
2023-04-02T05:13:39.222Z,88.43
2023-04-02T05:16:16.197Z,86.84
2023-04-02T05:19:00.869Z,85.82
2023-04-02T05:21:33.982Z,87.34
2023-04-02T05:24:20.677Z,87.17
2023-04-02T05:26:50.032Z,86.51
2023-04-02T05:29:20.081Z,84.91
2023-04-02T05:32:04.807Z,85.12
2023-04-02T05:34:33.160Z,84.11
2023-04-02T05:36:59.646Z,84.33
2023-04-02T05:39:27.014Z,84.51
2023-04-02T05:42:00.564Z,84.58
2023-04-02T05:44:31.382Z,85.63
2023-04-02T05:47:00.368Z,87.28
2023-04-02T05:49:47.056Z,82.03
2023-04-02T05:52:24.096Z,80.57
2023-04-02T05:54:59.270Z,82.12
2023-04-02T05:57:42.866Z,83.39
2023-04-02T06:00:17.583Z,81.53
2023-04-02T06:02:53.652Z,82.59
2023-04-02T06:05:23.892Z,82.84
2023-04-02T06:08:03.516Z,82.04
2023-04-02T06:10:32.642Z,80.95
2023-04-02T06:13:03.754Z,78.90
2023-04-02T06:15:31.824Z,79.95
2023-04-02T06:18:06.751Z,78.76
2023-04-02T06:20:44.151Z,78.48
2023-04-02T06:23:24.373Z,78.55
2023-04-02T06:26:12.403Z,78.96
2023-04-02T06:28:47.901Z,79.46
2023-04-02T06:31:33.333Z,80.76
2023-04-02T06:33:59.943Z,79.14
2023-04-02T06:36:27.257Z,76.98
2023-04-02T06:38:56.022Z,79.56
2023-04-02T06:41:24.086Z,75.78
2023-04-02T06:43:53.725Z,76.83
2023-04-02T06:46:35.828Z,77.27
2023-04-02T06:49:13.728Z,77.54
2023-04-02T06:51:41.062Z,75.67
2023-04-02T06:54:12.894Z,74.03
2023-04-02T06:56:44.896Z,73.98
2023-04-02T06:59:12.819Z,74.10
2023-04-02T07:01:46.443Z,76.20
2023-04-02T07:04:12.854Z,75.22
2023-04-02T07:06:39.328Z,76.67
2023-04-02T07:09:06.884Z,74.29
2023-04-02T07:11:33.329Z,74.37
2023-04-02T07:13:59.898Z,74.44
2023-04-02T07:16:27.571Z,73.90
2023-04-02T07:18:58.892Z,74.37
2023-04-02T07:21:26.613Z,75.77
2023-04-02T07:23:53.621Z,73.99
2023-04-02T07:26:22.359Z,74.92
2023-04-02T07:28:48.985Z,73.38
2023-04-02T07:31:20.055Z,73.16
2023-04-02T07:33:46.871Z,73.78
2023-04-02T07:36:23.607Z,73.75
2023-04-02T07:38:50.420Z,72.01
2023-04-02T07:41:16.942Z,72.96
2023-04-02T07:43:43.680Z,72.31
2023-04-02T07:46:10.933Z,68.98
2023-04-02T07:48:37.369Z,67.83
2023-04-02T07:51:03.865Z,67.72
2023-04-02T07:53:31.767Z,68.14
2023-04-02T07:56:03.019Z,66.38
2023-04-02T07:58:30.601Z,66.15
2023-04-02T08:00:57.346Z,66.22
2023-04-02T08:03:23.986Z,67.31
2023-04-02T08:05:51.610Z,68.53
2023-04-02T08:08:18.002Z,71.20
2023-04-02T08:10:44.477Z,71.75
2023-04-02T08:13:10.911Z,71.22
2023-04-02T08:15:37.596Z,72.87
2023-04-02T08:18:04.437Z,70.48
2023-04-02T08:20:31.030Z,71.13
2023-04-02T08:22:58.303Z,71.35
2023-04-02T08:25:24.735Z,71.14
2023-04-02T08:27:51.258Z,68.05
2023-04-02T08:30:17.944Z,68.52
2023-04-02T08:32:44.497Z,67.98
2023-04-02T08:35:12.177Z,67.62
2023-04-02T08:37:38.620Z,68.51
2023-04-02T08:40:06.827Z,66.99
2023-04-02T08:42:49.515Z,67.38
2023-04-02T08:45:25.099Z,68.10
2023-04-02T08:47:55.475Z,65.56
2023-04-02T08:50:25.187Z,66.95
2023-04-02T08:52:51.828Z,65.80
2023-04-02T08:55:27.093Z,66.65
2023-04-02T08:58:01.825Z,62.47
2023-04-02T09:00:34.134Z,61.27
2023-04-02T09:03:02.567Z,62.00
2023-04-02T09:05:33.974Z,60.47
2023-04-02T09:08:02.729Z,59.97
2023-04-02T09:10:37.576Z,59.88
2023-04-02T09:13:08.638Z,59.10
2023-04-02T09:15:36.722Z,59.29
2023-04-02T09:18:16.161Z,62.08
2023-04-02T09:20:52.292Z,58.36
2023-04-02T09:23:21.067Z,58.24
2023-04-02T09:26:02.917Z,57.61
2023-04-02T09:28:36.324Z,57.46
2023-04-02T09:31:03.332Z,59.84
2023-04-02T09:33:44.187Z,58.97
2023-04-02T09:36:33.552Z,60.57
2023-04-02T09:39:06.398Z,58.69
2023-04-02T09:41:37.170Z,59.53
2023-04-02T09:44:21.251Z,60.84
2023-04-02T09:46:49.485Z,61.52
2023-04-02T09:49:23.866Z,59.25
2023-04-02T09:52:20.019Z,60.03
2023-04-02T09:54:47.731Z,58.79
2023-04-02T09:57:21.234Z,59.74
2023-04-02T09:59:47.896Z,60.22
2023-04-02T10:02:25.055Z,59.34
2023-04-02T10:04:51.748Z,56.98
2023-04-02T10:07:34.644Z,58.53
2023-04-02T10:10:02.368Z,58.76
2023-04-02T10:12:30.351Z,57.91
2023-04-02T10:15:01.447Z,58.11
2023-04-02T10:17:30.544Z,56.91
2023-04-02T10:20:06.284Z,58.83
2023-04-02T10:22:32.798Z,56.63
2023-04-02T10:24:59.532Z,56.47
2023-04-02T10:27:29.790Z,56.43
2023-04-02T10:30:05.610Z,55.13
2023-04-02T10:32:36.912Z,55.12
2023-04-02T10:35:11.495Z,56.26
2023-04-02T10:37:56.311Z,55.04
2023-04-02T10:40:37.657Z,54.74
2023-04-02T10:43:07.267Z,55.40
2023-04-02T10:45:51.069Z,54.18
2023-04-02T10:48:26.681Z,55.99
2023-04-02T10:51:01.150Z,57.76
2023-04-02T10:53:36.691Z,57.78
2023-04-02T10:56:05.707Z,56.67
2023-04-02T10:58:35.805Z,56.80
2023-04-02T11:01:11.307Z,56.06
2023-04-02T11:03:41.674Z,55.33
2023-04-02T11:06:23.869Z,54.88
2023-04-02T11:08:52.455Z,55.87
2023-04-02T11:11:21.474Z,52.36
2023-04-02T11:13:59.345Z,53.42
2023-04-02T11:16:39.426Z,51.28
2023-04-02T11:19:10.650Z,53.92
2023-04-02T11:21:47.632Z,53.03
2023-04-02T11:24:32.924Z,51.73
2023-04-02T11:27:25.120Z,53.32
2023-04-02T11:29:51.682Z,53.37
2023-04-02T11:32:25.444Z,52.31
2023-04-02T11:35:06.501Z,52.95
2023-04-02T11:37:37.238Z,52.89
2023-04-02T11:40:14.136Z,52.79
2023-04-02T11:42:41.536Z,55.06
2023-04-02T11:45:46.516Z,54.68
2023-04-02T11:48:21.866Z,53.97
2023-04-02T11:50:48.557Z,54.04
2023-04-02T11:53:15.024Z,52.48
2023-04-02T11:55:42.490Z,52.66
2023-04-02T11:58:11.933Z,52.53
2023-04-02T12:00:50.499Z,53.33
2023-04-02T12:03:30.174Z,52.09
2023-04-02T12:06:10.957Z,53.17
2023-04-02T12:08:54.363Z,52.34
2023-04-02T12:11:35.157Z,55.32
2023-04-02T12:14:03.192Z,50.24
2023-04-02T12:16:33.468Z,51.00
2023-04-02T12:19:01.254Z,52.06
2023-04-02T12:21:28.842Z,51.43
2023-04-02T12:23:57.468Z,48.41
2023-04-02T12:26:26.620Z,48.93
2023-04-02T12:28:53.468Z,49.64
2023-04-02T12:31:21.925Z,49.01
2023-04-02T12:33:51.434Z,48.25
2023-04-02T12:36:19.717Z,49.42
2023-04-02T12:38:51.285Z,49.37
2023-04-02T12:41:24.448Z,47.77
2023-04-02T12:43:59.762Z,48.92
2023-04-02T12:46:26.825Z,49.19
2023-04-02T12:48:54.518Z,52.70
2023-04-02T12:51:25.320Z,49.48
2023-04-02T12:53:53.079Z,48.75
2023-04-02T12:56:21.742Z,51.75
2023-04-02T12:58:54.209Z,49.43
2023-04-02T13:01:23.792Z,49.50
2023-04-02T13:04:12.217Z,49.27
2023-04-02T13:06:39.684Z,52.14
2023-04-02T13:09:07.442Z,50.09
2023-04-02T13:11:38.090Z,50.51
2023-04-02T13:14:05.861Z,49.16
2023-04-02T13:16:39.955Z,51.08
2023-04-02T13:19:21.494Z,50.04
2023-04-02T13:21:47.957Z,49.57
2023-04-02T13:24:18.490Z,49.38
2023-04-02T13:26:45.222Z,50.15
2023-04-02T13:29:26.962Z,50.27
2023-04-02T13:31:55.039Z,48.97
2023-04-02T13:34:21.876Z,49.30
2023-04-02T13:36:48.544Z,52.01
2023-04-02T13:39:15.214Z,51.31
2023-04-02T13:41:41.834Z,50.06
2023-04-02T13:44:14.823Z,51.33
2023-04-02T13:46:41.190Z,48.45
2023-04-02T13:49:09.389Z,49.77
2023-04-02T13:51:37.303Z,48.79
2023-04-02T13:54:06.222Z,50.33
2023-04-02T13:56:33.361Z,49.09
2023-04-02T13:58:59.724Z,48.29
2023-04-02T14:01:26.288Z,49.04
2023-04-02T14:03:54.249Z,51.10
2023-04-02T14:06:26.545Z,48.36
2023-04-02T14:09:05.023Z,51.77
2023-04-02T14:11:51.228Z,49.85
2023-04-02T14:14:23.674Z,48.26
2023-04-02T14:16:55.792Z,48.51
2023-04-02T14:19:31.048Z,50.50
2023-04-02T14:22:03.420Z,49.38
2023-04-02T14:24:29.839Z,49.54
2023-04-02T14:27:15.001Z,51.36
2023-04-02T14:29:46.818Z,48.62
2023-04-02T14:32:36.152Z,49.72
2023-04-02T14:35:17.050Z,50.82
2023-04-02T14:37:59.496Z,48.24
2023-04-02T14:40:46.356Z,49.89
2023-04-02T14:43:23.804Z,49.20
2023-04-02T14:45:58.054Z,49.69
2023-04-02T14:48:30.472Z,51.10
2023-04-02T14:51:03.663Z,51.73
2023-04-02T14:53:48.805Z,53.03
2023-04-02T14:56:15.800Z,54.37
2023-04-02T14:58:48.732Z,50.52
2023-04-02T15:01:31.878Z,49.06
2023-04-02T15:04:02.260Z,50.38
2023-04-02T15:06:34.331Z,51.06
2023-04-02T15:09:09.420Z,51.19
2023-04-02T15:11:37.903Z,52.46
2023-04-02T15:14:04.252Z,53.63
2023-04-02T15:16:33.282Z,52.79
2023-04-02T15:19:00.916Z,51.96
2023-04-02T15:21:29.432Z,56.48
2023-04-02T15:24:17.270Z,53.11
2023-04-02T15:26:43.563Z,53.66
2023-04-02T15:29:29.594Z,54.24
2023-04-02T15:32:15.030Z,55.42
2023-04-02T15:35:00.324Z,55.41
2023-04-02T15:37:32.266Z,53.59
2023-04-02T15:40:05.460Z,52.44
2023-04-02T15:42:39.725Z,53.31
2023-04-02T15:45:12.247Z,54.88
2023-04-02T15:50:34.412Z,55.56
2023-04-02T15:53:09.546Z,52.22
2023-04-02T15:55:59.569Z,53.22
2023-04-02T15:58:41.130Z,53.28
2023-04-02T16:01:26.479Z,54.76
2023-04-02T16:04:02.184Z,53.06
2023-04-02T16:06:43.629Z,53.74
2023-04-02T16:09:30.885Z,56.80
2023-04-02T16:12:00.467Z,53.68
2023-04-02T16:14:31.306Z,52.55
2023-04-02T16:17:03.867Z,54.14
2023-04-02T16:19:50.569Z,52.71
2023-04-02T16:22:20.357Z,53.26
2023-04-02T16:24:48.871Z,52.30
2023-04-02T16:27:33.309Z,54.17
2023-04-02T16:32:52.539Z,53.21
2023-04-02T16:38:39.531Z,53.17
2023-04-02T16:41:09.287Z,52.88
2023-04-02T16:43:55.304Z,56.56
2023-04-02T16:46:39.644Z,53.18
2023-04-02T16:49:37.585Z,56.71
2023-04-02T16:52:34.077Z,54.52
2023-04-02T16:55:13.020Z,56.12
2023-04-02T16:57:57.625Z,55.46
2023-04-02T17:00:33.768Z,55.28
2023-04-02T17:03:38.161Z,57.40
2023-04-02T17:06:32.083Z,55.90
2023-04-02T17:09:08.135Z,57.21
2023-04-02T17:11:47.564Z,55.69
2023-04-02T17:14:42.531Z,56.76
2023-04-02T17:17:15.889Z,59.33
2023-04-02T17:19:44.472Z,55.97
2023-04-02T17:22:20.761Z,57.69
2023-04-02T17:24:57.714Z,56.73
2023-04-02T17:27:35.470Z,57.40
2023-04-02T17:30:15.475Z,57.68
2023-04-02T17:32:42.731Z,58.10
2023-04-02T17:35:42.292Z,59.21
2023-04-02T17:38:20.087Z,59.17
2023-04-02T17:40:54.157Z,60.05
2023-04-02T17:43:47.470Z,59.45
2023-04-02T17:46:48.261Z,59.13
2023-04-02T17:49:40.559Z,60.92
2023-04-02T17:52:29.950Z,60.72
2023-04-02T17:55:11.771Z,60.03
2023-04-02T17:58:01.506Z,60.67
2023-04-02T18:00:54.633Z,60.31
2023-04-02T18:03:49.836Z,60.82
2023-04-02T18:06:22.480Z,62.95
2023-04-02T18:09:15.311Z,61.68
2023-04-02T18:12:20.908Z,62.37
2023-04-02T18:14:55.830Z,65.42
2023-04-02T18:17:50.467Z,61.84
2023-04-02T18:20:38.372Z,62.22
2023-04-02T18:24:01.758Z,62.57
2023-04-02T18:26:55.332Z,63.77
2023-04-02T18:29:27.466Z,63.35
2023-04-02T18:32:31.509Z,63.74
2023-04-02T18:35:21.096Z,65.42
2023-04-02T18:38:16.528Z,63.31
2023-04-02T18:41:02.176Z,63.75
2023-04-02T18:43:49.003Z,63.86
2023-04-02T18:46:58.243Z,65.22
2023-04-02T18:49:45.654Z,65.54
2023-04-02T18:52:18.401Z,66.50
2023-04-02T18:54:55.711Z,64.99
2023-04-02T18:57:24.258Z,65.05
2023-04-02T19:00:06.417Z,67.41
2023-04-02T19:02:48.928Z,67.37
2023-04-02T19:05:34.150Z,66.22
2023-04-02T19:08:38.608Z,67.09
2023-04-02T19:11:18.316Z,67.71
2023-04-02T19:13:49.089Z,68.22
2023-04-02T19:16:33.865Z,68.63
2023-04-02T19:19:26.918Z,68.49
2023-04-02T19:22:09.234Z,68.07
2023-04-02T19:25:15.935Z,68.49
2023-04-02T19:27:58.215Z,67.89
2023-04-02T19:30:51.463Z,68.23
2023-04-02T19:33:38.305Z,69.03
2023-04-02T19:36:18.771Z,70.22
2023-04-02T19:38:53.712Z,68.47
2023-04-02T19:41:47.978Z,69.94
2023-04-02T19:44:21.405Z,69.29
2023-04-02T19:46:48.403Z,68.04
2023-04-02T19:49:22.854Z,69.61
2023-04-02T19:52:06.875Z,72.70
2023-04-02T19:54:33.530Z,70.15
2023-04-02T19:57:01.677Z,70.62
2023-04-02T19:59:29.259Z,70.87
2023-04-02T20:01:55.944Z,69.85
2023-04-02T20:04:22.528Z,72.25
2023-04-02T20:06:54.625Z,71.71
2023-04-02T20:09:21.866Z,70.82
2023-04-02T20:11:51.466Z,70.85
2023-04-02T20:14:22.423Z,70.77
2023-04-02T20:16:58.227Z,70.87
2023-04-02T20:19:25.012Z,70.17
2023-04-02T20:21:52.667Z,71.93
2023-04-02T20:24:19.200Z,71.49
2023-04-02T20:26:45.932Z,71.23
2023-04-02T20:29:12.441Z,71.39
2023-04-02T20:31:38.955Z,71.64
2023-04-02T20:34:11.194Z,72.23
2023-04-02T20:36:43.752Z,71.87
2023-04-02T20:39:12.095Z,72.94
2023-04-02T20:41:38.586Z,71.47
2023-04-02T20:44:05.040Z,72.84
2023-04-02T20:46:34.295Z,72.66
2023-04-02T20:49:02.243Z,73.62
2023-04-02T20:51:28.752Z,72.14
2023-04-02T20:53:55.596Z,72.34
2023-04-02T20:56:26.584Z,72.87
2023-04-02T20:58:53.219Z,72.74
2023-04-02T21:01:21.247Z,72.44
2023-04-02T21:03:48.573Z,74.10
2023-04-02T21:06:21.636Z,72.70
2023-04-02T21:08:48.812Z,73.05
2023-04-02T21:11:16.333Z,72.30
2023-04-02T21:13:44.215Z,72.79
2023-04-02T21:16:14.419Z,72.60
2023-04-02T21:18:41.060Z,73.45
2023-04-02T21:21:08.116Z,73.78
2023-04-02T21:23:34.748Z,72.87
2023-04-02T21:26:02.989Z,72.45
2023-04-02T21:28:29.678Z,73.46
2023-04-02T21:31:03.716Z,73.69
2023-04-02T21:33:31.549Z,72.99
2023-04-02T21:36:06.025Z,72.89
2023-04-02T21:38:33.605Z,73.63
2023-04-02T21:41:11.323Z,72.80
2023-04-02T21:43:38.150Z,74.17
2023-04-02T21:46:04.885Z,73.95
2023-04-02T21:48:35.252Z,76.37
2023-04-02T21:51:10.908Z,74.77
2023-04-02T21:53:38.115Z,74.50
2023-04-02T21:56:07.313Z,75.39
2023-04-02T21:58:34.760Z,75.09
2023-04-02T22:01:01.869Z,75.20
2023-04-02T22:03:31.967Z,74.70
2023-04-02T22:06:12.196Z,75.62
2023-04-02T22:08:40.278Z,75.20
2023-04-02T22:11:18.595Z,75.16
2023-04-02T22:13:47.326Z,74.48
2023-04-02T22:16:19.649Z,75.80
2023-04-02T22:18:46.641Z,75.15
2023-04-02T22:21:14.286Z,75.43
2023-04-02T22:23:41.361Z,75.76
2023-04-02T22:26:14.285Z,75.33
2023-04-02T22:28:40.852Z,74.59
2023-04-02T22:31:08.907Z,74.62
2023-04-02T22:33:36.303Z,75.90
2023-04-02T22:36:03.216Z,76.93
2023-04-02T22:38:30.396Z,75.80
2023-04-02T22:41:16.553Z,75.99
2023-04-02T22:43:44.502Z,77.33
2023-04-02T22:46:13.685Z,75.82
2023-04-02T22:48:40.511Z,75.94
2023-04-02T22:51:08.917Z,76.77
2023-04-02T22:53:36.669Z,75.58
2023-04-02T22:56:07.024Z,75.24
2023-04-02T22:58:34.288Z,75.58
2023-04-02T23:01:06.300Z,75.07
2023-04-02T23:03:32.818Z,75.12
2023-04-02T23:06:07.450Z,75.06
2023-04-02T23:08:35.278Z,74.93
2023-04-02T23:11:04.144Z,75.50
2023-04-02T23:13:31.482Z,74.17
2023-04-02T23:15:58.069Z,76.40
2023-04-02T23:18:24.452Z,77.00
2023-04-02T23:20:50.859Z,75.30
2023-04-02T23:23:17.313Z,76.09
2023-04-02T23:25:43.745Z,77.66
2023-04-02T23:28:12.893Z,76.95
2023-04-02T23:30:41.746Z,74.54
2023-04-02T23:33:08.261Z,74.11
2023-04-02T23:35:35.318Z,72.67
2023-04-02T23:38:01.848Z,74.29
2023-04-02T23:40:28.437Z,75.26
2023-04-02T23:42:54.872Z,75.02
2023-04-02T23:45:21.308Z,75.61
2023-04-02T23:47:47.802Z,75.50
2023-04-02T23:50:14.265Z,73.77
2023-04-02T23:52:40.933Z,75.01
2023-04-02T23:55:07.520Z,74.34
2023-04-02T23:57:34.023Z,74.29
